sensor_id;sensor_type;location;lat;lon;timestamp;P1;durP1;ratioP1;P2;durP2;ratioP2
1479;SDS011;732;51.698;4.886;2024-02-26T00:00:07;9.90;;;6.07;;
1479;SDS011;732;51.698;4.886;2024-02-26T00:02:37;7.80;;;5.70;;
1479;SDS011;732;51.698;4.886;2024-02-26T00:05:07;9.70;;;5.70;;
1479;SDS011;732;51.698;4.886;2024-02-26T00:07:36;9.67;;;6.40;;
1479;SDS011;732;51.698;4.886;2024-02-26T00:10:07;12.53;;;5.90;;
1479;SDS011;732;51.698;4.886;2024-02-26T00:12:36;7.50;;;5.63;;
1479;SDS011;732;51.698;4.886;2024-02-26T00:15:06;11.60;;;5.97;;
1479;SDS011;732;51.698;4.886;2024-02-26T00:17:37;6.10;;;5.50;;
1479;SDS011;732;51.698;4.886;2024-02-26T00:20:06;7.07;;;5.70;;
1479;SDS011;732;51.698;4.886;2024-02-26T00:22:37;11.10;;;5.67;;
1479;SDS011;732;51.698;4.886;2024-02-26T00:25:07;7.20;;;5.60;;
1479;SDS011;732;51.698;4.886;2024-02-26T00:27:36;8.50;;;5.60;;
1479;SDS011;732;51.698;4.886;2024-02-26T00:30:06;6.90;;;5.67;;
1479;SDS011;732;51.698;4.886;2024-02-26T00:32:36;5.97;;;4.73;;
1479;SDS011;732;51.698;4.886;2024-02-26T00:35:05;8.80;;;5.80;;
1479;SDS011;732;51.698;4.886;2024-02-26T00:37:36;6.20;;;5.13;;
1479;SDS011;732;51.698;4.886;2024-02-26T00:40:05;8.43;;;5.70;;
1479;SDS011;732;51.698;4.886;2024-02-26T00:42:36;8.23;;;5.90;;
1479;SDS011;732;51.698;4.886;2024-02-26T00:45:05;8.13;;;5.67;;
1479;SDS011;732;51.698;4.886;2024-02-26T00:47:35;6.63;;;5.50;;
1479;SDS011;732;51.698;4.886;2024-02-26T00:50:04;6.43;;;5.60;;
1479;SDS011;732;51.698;4.886;2024-02-26T00:52:33;7.70;;;5.80;;
1479;SDS011;732;51.698;4.886;2024-02-26T00:55:02;8.90;;;6.17;;
1479;SDS011;732;51.698;4.886;2024-02-26T00:57:34;10.27;;;7.30;;
1479;SDS011;732;51.698;4.886;2024-02-26T01:00:03;10.37;;;5.67;;
1479;SDS011;732;51.698;4.886;2024-02-26T01:02:35;6.67;;;5.97;;
1479;SDS011;732;51.698;4.886;2024-02-26T01:05:05;8.10;;;6.07;;
1479;SDS011;732;51.698;4.886;2024-02-26T01:07:35;7.43;;;6.10;;
1479;SDS011;732;51.698;4.886;2024-02-26T01:10:04;7.60;;;5.50;;
1479;SDS011;732;51.698;4.886;2024-02-26T01:12:35;8.30;;;5.63;;
1479;SDS011;732;51.698;4.886;2024-02-26T01:15:04;6.10;;;5.10;;
1479;SDS011;732;51.698;4.886;2024-02-26T01:17:35;6.73;;;5.67;;
1479;SDS011;732;51.698;4.886;2024-02-26T01:20:06;6.97;;;5.80;;
1479;SDS011;732;51.698;4.886;2024-02-26T01:22:36;7.00;;;5.53;;
1479;SDS011;732;51.698;4.886;2024-02-26T01:25:05;9.43;;;6.60;;
1479;SDS011;732;51.698;4.886;2024-02-26T01:27:37;6.80;;;5.70;;
1479;SDS011;732;51.698;4.886;2024-02-26T01:30:08;8.57;;;5.67;;
1479;SDS011;732;51.698;4.886;2024-02-26T01:32:38;7.53;;;6.03;;
1479;SDS011;732;51.698;4.886;2024-02-26T01:35:08;6.90;;;5.60;;
1479;SDS011;732;51.698;4.886;2024-02-26T01:37:38;9.10;;;5.87;;
1479;SDS011;732;51.698;4.886;2024-02-26T01:40:08;9.87;;;6.30;;
1479;SDS011;732;51.698;4.886;2024-02-26T01:42:40;9.90;;;6.60;;
1479;SDS011;732;51.698;4.886;2024-02-26T01:45:09;10.03;;;5.90;;
1479;SDS011;732;51.698;4.886;2024-02-26T01:47:49;9.73;;;5.97;;
1479;SDS011;732;51.698;4.886;2024-02-26T01:50:19;6.53;;;5.63;;
1479;SDS011;732;51.698;4.886;2024-02-26T01:52:50;8.80;;;6.33;;
1479;SDS011;732;51.698;4.886;2024-02-26T01:55:20;7.37;;;6.53;;
1479;SDS011;732;51.698;4.886;2024-02-26T01:57:53;9.63;;;7.50;;
1479;SDS011;732;51.698;4.886;2024-02-26T02:00:22;9.37;;;7.30;;
1479;SDS011;732;51.698;4.886;2024-02-26T02:02:52;11.03;;;7.43;;
1479;SDS011;732;51.698;4.886;2024-02-26T02:05:22;8.70;;;7.27;;
1479;SDS011;732;51.698;4.886;2024-02-26T02:07:51;12.63;;;7.87;;
1479;SDS011;732;51.698;4.886;2024-02-26T02:10:21;9.63;;;8.47;;
1479;SDS011;732;51.698;4.886;2024-02-26T02:12:53;10.00;;;7.83;;
1479;SDS011;732;51.698;4.886;2024-02-26T02:15:22;9.67;;;7.13;;
1479;SDS011;732;51.698;4.886;2024-02-26T02:17:51;12.23;;;8.03;;
1479;SDS011;732;51.698;4.886;2024-02-26T02:20:24;8.10;;;6.87;;
1479;SDS011;732;51.698;4.886;2024-02-26T02:22:59;11.20;;;7.93;;
1479;SDS011;732;51.698;4.886;2024-02-26T02:25:29;9.97;;;7.63;;
1479;SDS011;732;51.698;4.886;2024-02-26T02:27:57;8.10;;;7.30;;
1479;SDS011;732;51.698;4.886;2024-02-26T02:30:27;8.63;;;7.70;;
1479;SDS011;732;51.698;4.886;2024-02-26T02:33:00;9.20;;;7.53;;
1479;SDS011;732;51.698;4.886;2024-02-26T02:35:30;10.00;;;7.17;;
1479;SDS011;732;51.698;4.886;2024-02-26T02:37:59;8.90;;;6.80;;
1479;SDS011;732;51.698;4.886;2024-02-26T02:40:28;10.10;;;7.60;;
1479;SDS011;732;51.698;4.886;2024-02-26T02:42:56;9.20;;;7.20;;
1479;SDS011;732;51.698;4.886;2024-02-26T02:45:26;10.23;;;7.90;;
1479;SDS011;732;51.698;4.886;2024-02-26T02:47:55;8.60;;;6.77;;
1479;SDS011;732;51.698;4.886;2024-02-26T02:50:23;14.63;;;7.73;;
1479;SDS011;732;51.698;4.886;2024-02-26T02:52:52;9.70;;;7.20;;
1479;SDS011;732;51.698;4.886;2024-02-26T02:55:22;9.03;;;7.70;;
1479;SDS011;732;51.698;4.886;2024-02-26T02:57:50;13.17;;;7.70;;
1479;SDS011;732;51.698;4.886;2024-02-26T03:00:19;10.30;;;7.93;;
1479;SDS011;732;51.698;4.886;2024-02-26T03:02:49;12.90;;;8.10;;
1479;SDS011;732;51.698;4.886;2024-02-26T03:05:18;14.43;;;7.30;;
1479;SDS011;732;51.698;4.886;2024-02-26T03:07:46;11.50;;;8.20;;
1479;SDS011;732;51.698;4.886;2024-02-26T03:10:16;12.10;;;8.20;;
1479;SDS011;732;51.698;4.886;2024-02-26T03:12:45;13.07;;;7.70;;
1479;SDS011;732;51.698;4.886;2024-02-26T03:15:14;11.90;;;8.60;;
1479;SDS011;732;51.698;4.886;2024-02-26T03:17:43;11.10;;;8.47;;
1479;SDS011;732;51.698;4.886;2024-02-26T03:20:11;15.40;;;8.63;;
1479;SDS011;732;51.698;4.886;2024-02-26T03:22:40;13.00;;;8.80;;
1479;SDS011;732;51.698;4.886;2024-02-26T03:25:09;12.20;;;8.60;;
1479;SDS011;732;51.698;4.886;2024-02-26T03:27:39;11.07;;;8.97;;
1479;SDS011;732;51.698;4.886;2024-02-26T03:30:08;12.67;;;9.80;;
1479;SDS011;732;51.698;4.886;2024-02-26T03:32:38;12.87;;;9.63;;
1479;SDS011;732;51.698;4.886;2024-02-26T03:35:07;13.10;;;10.30;;
1479;SDS011;732;51.698;4.886;2024-02-26T03:37:36;13.83;;;9.27;;
1479;SDS011;732;51.698;4.886;2024-02-26T03:40:05;12.83;;;9.77;;
1479;SDS011;732;51.698;4.886;2024-02-26T03:42:35;13.80;;;9.80;;
1479;SDS011;732;51.698;4.886;2024-02-26T03:45:06;13.10;;;9.73;;
1479;SDS011;732;51.698;4.886;2024-02-26T03:47:37;14.80;;;9.73;;
1479;SDS011;732;51.698;4.886;2024-02-26T03:50:07;11.70;;;9.77;;
1479;SDS011;732;51.698;4.886;2024-02-26T03:52:36;18.80;;;9.90;;
1479;SDS011;732;51.698;4.886;2024-02-26T03:55:05;15.13;;;9.90;;
1479;SDS011;732;51.698;4.886;2024-02-26T03:57:36;13.13;;;10.03;;
1479;SDS011;732;51.698;4.886;2024-02-26T04:00:07;13.37;;;10.20;;
1479;SDS011;732;51.698;4.886;2024-02-26T04:02:37;15.53;;;9.70;;
1479;SDS011;732;51.698;4.886;2024-02-26T04:05:08;17.57;;;10.57;;
1479;SDS011;732;51.698;4.886;2024-02-26T04:07:38;14.90;;;10.07;;
1479;SDS011;732;51.698;4.886;2024-02-26T04:10:11;21.80;;;10.60;;
1479;SDS011;732;51.698;4.886;2024-02-26T04:12:40;13.57;;;9.70;;
1479;SDS011;732;51.698;4.886;2024-02-26T04:15:11;14.93;;;9.87;;
1479;SDS011;732;51.698;4.886;2024-02-26T04:17:40;15.47;;;10.57;;
1479;SDS011;732;51.698;4.886;2024-02-26T04:20:13;14.23;;;10.83;;
1479;SDS011;732;51.698;4.886;2024-02-26T04:22:43;18.67;;;11.60;;
1479;SDS011;732;51.698;4.886;2024-02-26T04:25:12;15.00;;;10.40;;
1479;SDS011;732;51.698;4.886;2024-02-26T04:27:41;18.33;;;11.20;;
1479;SDS011;732;51.698;4.886;2024-02-26T04:30:11;18.87;;;12.10;;
1479;SDS011;732;51.698;4.886;2024-02-26T04:32:40;17.60;;;12.57;;
1479;SDS011;732;51.698;4.886;2024-02-26T04:35:09;16.37;;;11.70;;
1479;SDS011;732;51.698;4.886;2024-02-26T04:37:38;17.50;;;12.13;;
1479;SDS011;732;51.698;4.886;2024-02-26T04:40:07;17.30;;;11.60;;
1479;SDS011;732;51.698;4.886;2024-02-26T04:42:36;21.77;;;11.70;;
1479;SDS011;732;51.698;4.886;2024-02-26T04:45:05;19.93;;;11.97;;
1479;SDS011;732;51.698;4.886;2024-02-26T04:47:36;19.60;;;12.13;;
1479;SDS011;732;51.698;4.886;2024-02-26T04:50:05;18.93;;;12.00;;
1479;SDS011;732;51.698;4.886;2024-02-26T04:52:35;21.63;;;13.17;;
1479;SDS011;732;51.698;4.886;2024-02-26T04:55:04;17.97;;;12.17;;
1479;SDS011;732;51.698;4.886;2024-02-26T04:57:34;22.93;;;13.87;;
1479;SDS011;732;51.698;4.886;2024-02-26T05:00:03;20.87;;;13.20;;
1479;SDS011;732;51.698;4.886;2024-02-26T05:02:33;20.80;;;12.43;;
1479;SDS011;732;51.698;4.886;2024-02-26T05:05:06;21.43;;;13.23;;
1479;SDS011;732;51.698;4.886;2024-02-26T05:07:39;21.00;;;12.40;;
1479;SDS011;732;51.698;4.886;2024-02-26T05:10:09;21.80;;;12.13;;
1479;SDS011;732;51.698;4.886;2024-02-26T05:12:37;20.50;;;12.47;;
1479;SDS011;732;51.698;4.886;2024-02-26T05:15:09;17.67;;;12.83;;
1479;SDS011;732;51.698;4.886;2024-02-26T05:17:39;20.80;;;12.30;;
1479;SDS011;732;51.698;4.886;2024-02-26T05:20:10;23.80;;;14.07;;
1479;SDS011;732;51.698;4.886;2024-02-26T05:22:39;21.60;;;12.90;;
1479;SDS011;732;51.698;4.886;2024-02-26T05:25:07;21.77;;;14.20;;
1479;SDS011;732;51.698;4.886;2024-02-26T05:27:36;22.43;;;13.70;;
1479;SDS011;732;51.698;4.886;2024-02-26T05:30:05;23.47;;;14.87;;
1479;SDS011;732;51.698;4.886;2024-02-26T05:32:35;23.40;;;15.10;;
1479;SDS011;732;51.698;4.886;2024-02-26T05:35:04;26.93;;;14.40;;
1479;SDS011;732;51.698;4.886;2024-02-26T05:37:36;29.10;;;14.90;;
1479;SDS011;732;51.698;4.886;2024-02-26T05:40:06;21.93;;;14.93;;
1479;SDS011;732;51.698;4.886;2024-02-26T05:42:35;26.00;;;15.40;;
1479;SDS011;732;51.698;4.886;2024-02-26T05:45:04;22.63;;;14.30;;
1479;SDS011;732;51.698;4.886;2024-02-26T05:47:35;21.50;;;14.37;;
1479;SDS011;732;51.698;4.886;2024-02-26T05:50:09;23.77;;;14.57;;
1479;SDS011;732;51.698;4.886;2024-02-26T05:52:42;22.67;;;15.10;;
1479;SDS011;732;51.698;4.886;2024-02-26T05:55:11;25.20;;;15.50;;
1479;SDS011;732;51.698;4.886;2024-02-26T05:57:40;26.60;;;16.23;;
1479;SDS011;732;51.698;4.886;2024-02-26T06:00:09;25.27;;;15.50;;
1479;SDS011;732;51.698;4.886;2024-02-26T06:02:41;26.80;;;15.60;;
1479;SDS011;732;51.698;4.886;2024-02-26T06:05:10;31.70;;;16.23;;
1479;SDS011;732;51.698;4.886;2024-02-26T06:07:39;25.43;;;16.07;;
1479;SDS011;732;51.698;4.886;2024-02-26T06:10:10;26.60;;;15.53;;
1479;SDS011;732;51.698;4.886;2024-02-26T06:12:40;26.00;;;16.57;;
1479;SDS011;732;51.698;4.886;2024-02-26T06:15:09;24.67;;;15.00;;
1479;SDS011;732;51.698;4.886;2024-02-26T06:17:38;22.07;;;14.47;;
1479;SDS011;732;51.698;4.886;2024-02-26T06:20:07;24.00;;;15.20;;
1479;SDS011;732;51.698;4.886;2024-02-26T06:22:39;27.20;;;14.63;;
1479;SDS011;732;51.698;4.886;2024-02-26T06:25:09;23.97;;;14.47;;
1479;SDS011;732;51.698;4.886;2024-02-26T06:27:38;26.03;;;15.43;;
1479;SDS011;732;51.698;4.886;2024-02-26T06:30:07;19.87;;;13.60;;
1479;SDS011;732;51.698;4.886;2024-02-26T06:32:38;24.97;;;15.93;;
1479;SDS011;732;51.698;4.886;2024-02-26T06:35:07;27.40;;;15.43;;
1479;SDS011;732;51.698;4.886;2024-02-26T06:37:38;21.70;;;14.10;;
1479;SDS011;732;51.698;4.886;2024-02-26T06:40:07;22.10;;;13.10;;
1479;SDS011;732;51.698;4.886;2024-02-26T06:42:38;21.80;;;14.07;;
1479;SDS011;732;51.698;4.886;2024-02-26T06:45:09;19.10;;;13.40;;
1479;SDS011;732;51.698;4.886;2024-02-26T06:47:38;21.40;;;13.03;;
1479;SDS011;732;51.698;4.886;2024-02-26T06:50:12;20.10;;;13.67;;
1479;SDS011;732;51.698;4.886;2024-02-26T06:52:42;21.47;;;13.97;;
1479;SDS011;732;51.698;4.886;2024-02-26T06:55:14;24.40;;;14.87;;
1479;SDS011;732;51.698;4.886;2024-02-26T06:57:43;23.63;;;14.20;;
1479;SDS011;732;51.698;4.886;2024-02-26T07:00:12;22.00;;;13.80;;
1479;SDS011;732;51.698;4.886;2024-02-26T07:02:45;21.60;;;14.60;;
1479;SDS011;732;51.698;4.886;2024-02-26T07:05:15;21.90;;;15.00;;
1479;SDS011;732;51.698;4.886;2024-02-26T07:07:44;33.40;;;16.43;;
1479;SDS011;732;51.698;4.886;2024-02-26T07:10:14;24.90;;;14.73;;
1479;SDS011;732;51.698;4.886;2024-02-26T07:12:43;21.20;;;14.57;;
1479;SDS011;732;51.698;4.886;2024-02-26T07:15:11;21.10;;;13.53;;
1479;SDS011;732;51.698;4.886;2024-02-26T07:17:40;22.77;;;13.90;;
1479;SDS011;732;51.698;4.886;2024-02-26T07:20:13;24.73;;;15.10;;
1479;SDS011;732;51.698;4.886;2024-02-26T07:22:44;27.10;;;15.10;;
1479;SDS011;732;51.698;4.886;2024-02-26T07:25:16;23.67;;;14.53;;
1479;SDS011;732;51.698;4.886;2024-02-26T07:27:44;24.10;;;14.70;;
1479;SDS011;732;51.698;4.886;2024-02-26T07:30:13;31.50;;;15.40;;
1479;SDS011;732;51.698;4.886;2024-02-26T07:32:42;24.93;;;16.37;;
1479;SDS011;732;51.698;4.886;2024-02-26T07:35:16;23.23;;;15.60;;
1479;SDS011;732;51.698;4.886;2024-02-26T07:37:47;28.90;;;15.27;;
1479;SDS011;732;51.698;4.886;2024-02-26T07:40:18;33.87;;;17.53;;
1479;SDS011;732;51.698;4.886;2024-02-26T07:42:47;24.23;;;15.57;;
1479;SDS011;732;51.698;4.886;2024-02-26T07:45:16;25.87;;;15.43;;
1479;SDS011;732;51.698;4.886;2024-02-26T07:47:46;30.97;;;17.30;;
1479;SDS011;732;51.698;4.886;2024-02-26T07:50:15;24.30;;;15.23;;
1479;SDS011;732;51.698;4.886;2024-02-26T07:52:44;34.17;;;17.17;;
1479;SDS011;732;51.698;4.886;2024-02-26T07:55:13;30.37;;;17.43;;
1479;SDS011;732;51.698;4.886;2024-02-26T07:57:43;28.07;;;16.60;;
1479;SDS011;732;51.698;4.886;2024-02-26T08:00:12;32.53;;;17.47;;
1479;SDS011;732;51.698;4.886;2024-02-26T08:02:43;34.40;;;16.73;;
1479;SDS011;732;51.698;4.886;2024-02-26T08:05:12;36.13;;;19.20;;
1479;SDS011;732;51.698;4.886;2024-02-26T08:07:41;36.50;;;18.53;;
1479;SDS011;732;51.698;4.886;2024-02-26T08:10:10;33.60;;;18.80;;
1479;SDS011;732;51.698;4.886;2024-02-26T08:12:39;35.60;;;18.03;;
1479;SDS011;732;51.698;4.886;2024-02-26T08:15:09;41.57;;;20.90;;
1479;SDS011;732;51.698;4.886;2024-02-26T08:17:38;40.77;;;19.50;;
1479;SDS011;732;51.698;4.886;2024-02-26T08:20:07;41.10;;;20.90;;
1479;SDS011;732;51.698;4.886;2024-02-26T08:22:36;39.97;;;20.97;;
1479;SDS011;732;51.698;4.886;2024-02-26T08:25:06;45.43;;;23.57;;
1479;SDS011;732;51.698;4.886;2024-02-26T08:27:36;49.13;;;22.43;;
1479;SDS011;732;51.698;4.886;2024-02-26T08:30:05;44.10;;;21.53;;
1479;SDS011;732;51.698;4.886;2024-02-26T08:32:40;42.67;;;21.80;;
1479;SDS011;732;51.698;4.886;2024-02-26T08:35:09;43.90;;;21.83;;
1479;SDS011;732;51.698;4.886;2024-02-26T08:37:38;46.77;;;21.33;;
1479;SDS011;732;51.698;4.886;2024-02-26T08:40:07;55.90;;;23.60;;
1479;SDS011;732;51.698;4.886;2024-02-26T08:42:37;44.20;;;21.83;;
1479;SDS011;732;51.698;4.886;2024-02-26T08:45:07;40.83;;;20.60;;
1479;SDS011;732;51.698;4.886;2024-02-26T08:47:38;52.10;;;22.13;;
1479;SDS011;732;51.698;4.886;2024-02-26T08:50:07;43.50;;;21.87;;
1479;SDS011;732;51.698;4.886;2024-02-26T08:52:38;46.47;;;21.80;;
1479;SDS011;732;51.698;4.886;2024-02-26T08:55:07;46.70;;;21.33;;
1479;SDS011;732;51.698;4.886;2024-02-26T08:57:36;46.17;;;21.27;;
1479;SDS011;732;51.698;4.886;2024-02-26T09:00:05;49.60;;;21.97;;
1479;SDS011;732;51.698;4.886;2024-02-26T09:02:37;48.03;;;21.83;;
1479;SDS011;732;51.698;4.886;2024-02-26T09:05:06;49.40;;;23.37;;
1479;SDS011;732;51.698;4.886;2024-02-26T09:07:35;49.67;;;22.97;;
1479;SDS011;732;51.698;4.886;2024-02-26T09:10:05;43.67;;;19.23;;
1479;SDS011;732;51.698;4.886;2024-02-26T09:12:37;48.73;;;21.60;;
1479;SDS011;732;51.698;4.886;2024-02-26T09:15:07;48.27;;;21.63;;
1479;SDS011;732;51.698;4.886;2024-02-26T09:17:38;42.90;;;21.50;;
1479;SDS011;732;51.698;4.886;2024-02-26T09:20:07;53.47;;;24.00;;
1479;SDS011;732;51.698;4.886;2024-02-26T09:22:36;54.60;;;23.07;;
1479;SDS011;732;51.698;4.886;2024-02-26T09:25:05;61.33;;;25.77;;
1479;SDS011;732;51.698;4.886;2024-02-26T09:27:35;51.60;;;23.20;;
1479;SDS011;732;51.698;4.886;2024-02-26T09:30:11;52.30;;;22.33;;
1479;SDS011;732;51.698;4.886;2024-02-26T09:32:45;54.40;;;22.70;;
1479;SDS011;732;51.698;4.886;2024-02-26T09:35:15;53.60;;;22.27;;
1479;SDS011;732;51.698;4.886;2024-02-26T09:37:44;52.17;;;22.60;;
1479;SDS011;732;51.698;4.886;2024-02-26T09:40:15;65.90;;;22.40;;
1479;SDS011;732;51.698;4.886;2024-02-26T09:42:44;52.00;;;22.90;;
1479;SDS011;732;51.698;4.886;2024-02-26T09:45:18;55.23;;;23.90;;
1479;SDS011;732;51.698;4.886;2024-02-26T09:47:49;48.80;;;22.27;;
1479;SDS011;732;51.698;4.886;2024-02-26T09:50:19;47.53;;;20.97;;
1479;SDS011;732;51.698;4.886;2024-02-26T09:52:50;52.33;;;21.70;;
1479;SDS011;732;51.698;4.886;2024-02-26T09:55:20;44.00;;;20.80;;
1479;SDS011;732;51.698;4.886;2024-02-26T09:57:49;53.63;;;22.23;;
1479;SDS011;732;51.698;4.886;2024-02-26T10:00:22;43.63;;;21.27;;
1479;SDS011;732;51.698;4.886;2024-02-26T10:02:52;48.20;;;23.40;;
1479;SDS011;732;51.698;4.886;2024-02-26T10:05:23;52.50;;;22.90;;
1479;SDS011;732;51.698;4.886;2024-02-26T10:07:52;46.30;;;22.17;;
1479;SDS011;732;51.698;4.886;2024-02-26T10:10:22;48.03;;;22.00;;
1479;SDS011;732;51.698;4.886;2024-02-26T10:12:51;33.47;;;18.90;;
1479;SDS011;732;51.698;4.886;2024-02-26T10:15:21;36.70;;;19.40;;
1479;SDS011;732;51.698;4.886;2024-02-26T10:17:50;35.23;;;18.67;;
1479;SDS011;732;51.698;4.886;2024-02-26T10:20:19;45.23;;;20.33;;
1479;SDS011;732;51.698;4.886;2024-02-26T10:22:50;38.37;;;19.80;;
1479;SDS011;732;51.698;4.886;2024-02-26T10:25:21;35.03;;;20.50;;
1479;SDS011;732;51.698;4.886;2024-02-26T10:27:50;42.43;;;21.67;;
1479;SDS011;732;51.698;4.886;2024-02-26T10:30:19;40.10;;;19.40;;
1479;SDS011;732;51.698;4.886;2024-02-26T10:32:52;36.30;;;18.93;;
1479;SDS011;732;51.698;4.886;2024-02-26T10:35:21;39.03;;;19.23;;
1479;SDS011;732;51.698;4.886;2024-02-26T10:37:51;36.10;;;18.00;;
1479;SDS011;732;51.698;4.886;2024-02-26T10:40:20;43.67;;;19.80;;
1479;SDS011;732;51.698;4.886;2024-02-26T10:42:49;36.27;;;17.80;;
1479;SDS011;732;51.698;4.886;2024-02-26T10:45:18;36.50;;;17.77;;
1479;SDS011;732;51.698;4.886;2024-02-26T10:47:49;35.80;;;18.70;;
1479;SDS011;732;51.698;4.886;2024-02-26T10:50:18;35.03;;;18.37;;
1479;SDS011;732;51.698;4.886;2024-02-26T10:52:48;37.37;;;18.57;;
1479;SDS011;732;51.698;4.886;2024-02-26T10:55:17;33.60;;;18.70;;
1479;SDS011;732;51.698;4.886;2024-02-26T10:57:49;32.33;;;17.83;;
1479;SDS011;732;51.698;4.886;2024-02-26T11:00:20;39.97;;;18.47;;
1479;SDS011;732;51.698;4.886;2024-02-26T11:02:52;40.60;;;18.73;;
1479;SDS011;732;51.698;4.886;2024-02-26T11:05:22;36.73;;;17.13;;
1479;SDS011;732;51.698;4.886;2024-02-26T11:07:52;32.40;;;17.00;;
1479;SDS011;732;51.698;4.886;2024-02-26T11:10:22;31.30;;;19.00;;
1479;SDS011;732;51.698;4.886;2024-02-26T11:12:52;34.20;;;17.97;;
1479;SDS011;732;51.698;4.886;2024-02-26T11:15:23;42.67;;;18.40;;
1479;SDS011;732;51.698;4.886;2024-02-26T11:17:53;32.97;;;18.07;;
1479;SDS011;732;51.698;4.886;2024-02-26T11:20:24;30.97;;;15.90;;
1479;SDS011;732;51.698;4.886;2024-02-26T11:22:55;32.43;;;17.43;;
1479;SDS011;732;51.698;4.886;2024-02-26T11:25:24;32.07;;;16.97;;
1479;SDS011;732;51.698;4.886;2024-02-26T11:27:53;37.50;;;18.83;;
1479;SDS011;732;51.698;4.886;2024-02-26T11:30:28;33.20;;;18.50;;
1479;SDS011;732;51.698;4.886;2024-02-26T11:33:03;31.37;;;16.23;;
1479;SDS011;732;51.698;4.886;2024-02-26T11:35:34;29.10;;;15.60;;
1479;SDS011;732;51.698;4.886;2024-02-26T11:38:04;31.30;;;18.00;;
1479;SDS011;732;51.698;4.886;2024-02-26T11:40:37;31.03;;;16.93;;
1479;SDS011;732;51.698;4.886;2024-02-26T11:43:08;28.67;;;16.97;;
1479;SDS011;732;51.698;4.886;2024-02-26T11:45:49;29.20;;;16.57;;
1479;SDS011;732;51.698;4.886;2024-02-26T11:48:24;27.60;;;16.10;;
1479;SDS011;732;51.698;4.886;2024-02-26T11:50:54;31.93;;;16.20;;
1479;SDS011;732;51.698;4.886;2024-02-26T11:53:25;30.47;;;16.30;;
1479;SDS011;732;51.698;4.886;2024-02-26T11:56:20;33.13;;;16.67;;
1479;SDS011;732;51.698;4.886;2024-02-26T11:58:57;31.83;;;17.87;;
1479;SDS011;732;51.698;4.886;2024-02-26T12:01:38;26.37;;;16.00;;
1479;SDS011;732;51.698;4.886;2024-02-26T12:04:13;27.40;;;15.53;;
1479;SDS011;732;51.698;4.886;2024-02-26T12:06:48;26.13;;;15.30;;
1479;SDS011;732;51.698;4.886;2024-02-26T12:09:32;30.37;;;14.47;;
1479;SDS011;732;51.698;4.886;2024-02-26T12:12:04;30.80;;;15.10;;
1479;SDS011;732;51.698;4.886;2024-02-26T12:14:39;31.23;;;15.03;;
1479;SDS011;732;51.698;4.886;2024-02-26T12:17:19;26.13;;;13.90;;
1479;SDS011;732;51.698;4.886;2024-02-26T12:19:51;26.37;;;15.67;;
1479;SDS011;732;51.698;4.886;2024-02-26T12:22:21;25.07;;;14.47;;
1479;SDS011;732;51.698;4.886;2024-02-26T12:24:57;28.00;;;15.40;;
1479;SDS011;732;51.698;4.886;2024-02-26T12:27:28;26.87;;;15.20;;
1479;SDS011;732;51.698;4.886;2024-02-26T12:29:57;24.87;;;14.23;;
1479;SDS011;732;51.698;4.886;2024-02-26T12:32:25;29.90;;;17.17;;
1479;SDS011;732;51.698;4.886;2024-02-26T12:34:55;23.90;;;14.10;;
1479;SDS011;732;51.698;4.886;2024-02-26T12:37:25;29.47;;;15.63;;
1479;SDS011;732;51.698;4.886;2024-02-26T12:39:53;30.63;;;16.70;;
1479;SDS011;732;51.698;4.886;2024-02-26T12:42:22;27.40;;;15.93;;
1479;SDS011;732;51.698;4.886;2024-02-26T12:44:51;27.43;;;15.00;;
1479;SDS011;732;51.698;4.886;2024-02-26T12:47:21;21.90;;;13.77;;
1479;SDS011;732;51.698;4.886;2024-02-26T12:49:49;30.83;;;17.03;;
1479;SDS011;732;51.698;4.886;2024-02-26T12:52:19;27.93;;;15.70;;
1479;SDS011;732;51.698;4.886;2024-02-26T12:54:50;25.60;;;15.00;;
1479;SDS011;732;51.698;4.886;2024-02-26T12:57:18;32.20;;;15.77;;
1479;SDS011;732;51.698;4.886;2024-02-26T12:59:47;28.90;;;15.67;;
1479;SDS011;732;51.698;4.886;2024-02-26T13:02:16;29.03;;;17.40;;
1479;SDS011;732;51.698;4.886;2024-02-26T13:04:45;24.47;;;15.30;;
1479;SDS011;732;51.698;4.886;2024-02-26T13:07:14;29.73;;;17.20;;
1479;SDS011;732;51.698;4.886;2024-02-26T13:09:44;28.00;;;16.10;;
1479;SDS011;732;51.698;4.886;2024-02-26T13:12:13;27.27;;;16.30;;
1479;SDS011;732;51.698;4.886;2024-02-26T13:14:41;31.40;;;16.97;;
1479;SDS011;732;51.698;4.886;2024-02-26T13:17:10;26.97;;;16.67;;
1479;SDS011;732;51.698;4.886;2024-02-26T13:19:48;26.83;;;15.87;;
1479;SDS011;732;51.698;4.886;2024-02-26T13:22:20;30.13;;;17.00;;
1479;SDS011;732;51.698;4.886;2024-02-26T13:24:55;29.83;;;15.43;;
1479;SDS011;732;51.698;4.886;2024-02-26T13:27:24;31.90;;;16.33;;
1479;SDS011;732;51.698;4.886;2024-02-26T13:30:03;26.37;;;15.50;;
1479;SDS011;732;51.698;4.886;2024-02-26T13:32:37;26.83;;;16.07;;
1479;SDS011;732;51.698;4.886;2024-02-26T13:35:08;25.50;;;15.30;;
1479;SDS011;732;51.698;4.886;2024-02-26T13:37:39;25.53;;;15.50;;
1479;SDS011;732;51.698;4.886;2024-02-26T13:40:10;26.93;;;15.00;;
1479;SDS011;732;51.698;4.886;2024-02-26T13:42:40;24.73;;;15.63;;
1479;SDS011;732;51.698;4.886;2024-02-26T13:45:09;26.63;;;14.07;;
1479;SDS011;732;51.698;4.886;2024-02-26T13:47:37;27.50;;;15.30;;
1479;SDS011;732;51.698;4.886;2024-02-26T13:50:07;23.23;;;14.20;;
1479;SDS011;732;51.698;4.886;2024-02-26T13:52:36;24.30;;;14.10;;
1479;SDS011;732;51.698;4.886;2024-02-26T13:55:05;21.53;;;13.90;;
1479;SDS011;732;51.698;4.886;2024-02-26T13:57:36;24.23;;;13.10;;
1479;SDS011;732;51.698;4.886;2024-02-26T14:00:05;22.40;;;13.93;;
1479;SDS011;732;51.698;4.886;2024-02-26T14:02:39;20.50;;;13.23;;
1479;SDS011;732;51.698;4.886;2024-02-26T14:05:08;24.53;;;14.23;;
1479;SDS011;732;51.698;4.886;2024-02-26T14:07:37;21.80;;;12.97;;
1479;SDS011;732;51.698;4.886;2024-02-26T14:10:07;22.97;;;13.60;;
1479;SDS011;732;51.698;4.886;2024-02-26T14:12:40;23.70;;;12.90;;
1479;SDS011;732;51.698;4.886;2024-02-26T14:15:09;23.97;;;14.40;;
1479;SDS011;732;51.698;4.886;2024-02-26T14:17:39;20.13;;;12.50;;
1479;SDS011;732;51.698;4.886;2024-02-26T14:20:08;19.10;;;11.73;;
1479;SDS011;732;51.698;4.886;2024-02-26T14:22:37;26.00;;;13.30;;
1479;SDS011;732;51.698;4.886;2024-02-26T14:25:06;22.43;;;11.87;;
1479;SDS011;732;51.698;4.886;2024-02-26T14:27:37;26.07;;;13.60;;
1479;SDS011;732;51.698;4.886;2024-02-26T14:30:08;22.03;;;13.30;;
1479;SDS011;732;51.698;4.886;2024-02-26T14:32:37;20.67;;;12.03;;
1479;SDS011;732;51.698;4.886;2024-02-26T14:35:06;19.70;;;13.37;;
1479;SDS011;732;51.698;4.886;2024-02-26T14:37:42;19.47;;;12.47;;
1479;SDS011;732;51.698;4.886;2024-02-26T14:40:14;21.50;;;13.00;;
1479;SDS011;732;51.698;4.886;2024-02-26T14:42:44;22.53;;;13.10;;
1479;SDS011;732;51.698;4.886;2024-02-26T14:45:14;21.20;;;12.90;;
1479;SDS011;732;51.698;4.886;2024-02-26T14:47:44;23.23;;;13.03;;
1479;SDS011;732;51.698;4.886;2024-02-26T14:50:13;20.67;;;12.07;;
1479;SDS011;732;51.698;4.886;2024-02-26T14:52:42;20.50;;;12.23;;
1479;SDS011;732;51.698;4.886;2024-02-26T14:55:11;21.50;;;13.77;;
1479;SDS011;732;51.698;4.886;2024-02-26T14:57:40;21.37;;;13.17;;
1479;SDS011;732;51.698;4.886;2024-02-26T15:00:09;22.27;;;13.00;;
1479;SDS011;732;51.698;4.886;2024-02-26T15:02:40;22.53;;;12.20;;
1479;SDS011;732;51.698;4.886;2024-02-26T15:05:09;15.67;;;10.70;;
1479;SDS011;732;51.698;4.886;2024-02-26T15:07:38;18.80;;;11.70;;
1479;SDS011;732;51.698;4.886;2024-02-26T15:10:08;19.77;;;12.07;;
1479;SDS011;732;51.698;4.886;2024-02-26T15:12:37;21.33;;;11.90;;
1479;SDS011;732;51.698;4.886;2024-02-26T15:15:06;22.83;;;12.13;;
1479;SDS011;732;51.698;4.886;2024-02-26T15:17:36;15.40;;;11.03;;
1479;SDS011;732;51.698;4.886;2024-02-26T15:20:09;16.20;;;11.63;;
1479;SDS011;732;51.698;4.886;2024-02-26T15:22:39;14.50;;;10.00;;
1479;SDS011;732;51.698;4.886;2024-02-26T15:25:08;19.03;;;11.47;;